sensor_id;sensor_type;location;lat;lon;timestamp;P1;durP1;ratioP1;P2;durP2;ratioP2
75548;SDS011;64133;56.002;37.208;2023-03-31T00:04:14;5.40;;;3.30;;
75548;SDS011;64133;56.002;37.208;2023-03-31T00:09:19;5.58;;;3.40;;
75548;SDS011;64133;56.002;37.208;2023-03-31T00:14:24;5.10;;;3.45;;
75548;SDS011;64133;56.002;37.208;2023-03-31T00:19:28;4.87;;;3.25;;
75548;SDS011;64133;56.002;37.208;2023-03-31T00:24:33;4.35;;;2.50;;
75548;SDS011;64133;56.002;37.208;2023-03-31T00:29:38;5.65;;;3.25;;
75548;SDS011;64133;56.002;37.208;2023-03-31T00:34:44;5.40;;;2.98;;
75548;SDS011;64133;56.002;37.208;2023-03-31T00:39:48;3.90;;;2.55;;
75548;SDS011;64133;56.002;37.208;2023-03-31T00:50:26;8.55;;;3.47;;
75548;SDS011;64133;56.002;37.208;2023-03-31T00:55:32;5.17;;;2.90;;
75548;SDS011;64133;56.002;37.208;2023-03-31T01:00:35;4.85;;;3.55;;
75548;SDS011;64133;56.002;37.208;2023-03-31T01:05:41;7.20;;;3.17;;
75548;SDS011;64133;56.002;37.208;2023-03-31T01:10:46;4.60;;;3.00;;
75548;SDS011;64133;56.002;37.208;2023-03-31T01:15:50;8.60;;;2.72;;
75548;SDS011;64133;56.002;37.208;2023-03-31T01:21:08;4.75;;;2.50;;
75548;SDS011;64133;56.002;37.208;2023-03-31T01:26:26;4.92;;;3.00;;
75548;SDS011;64133;56.002;37.208;2023-03-31T01:37:28;4.62;;;2.30;;
75548;SDS011;64133;56.002;37.208;2023-03-31T01:42:53;4.37;;;2.60;;
75548;SDS011;64133;56.002;37.208;2023-03-31T01:47:58;4.87;;;2.85;;
75548;SDS011;64133;56.002;37.208;2023-03-31T01:53:02;5.83;;;2.25;;
75548;SDS011;64133;56.002;37.208;2023-03-31T01:58:08;3.80;;;2.12;;
75548;SDS011;64133;56.002;37.208;2023-03-31T02:03:15;4.05;;;2.25;;
75548;SDS011;64133;56.002;37.208;2023-03-31T02:08:19;5.62;;;2.25;;
75548;SDS011;64133;56.002;37.208;2023-03-31T02:13:25;4.42;;;2.50;;
75548;SDS011;64133;56.002;37.208;2023-03-31T02:18:30;4.20;;;2.50;;
75548;SDS011;64133;56.002;37.208;2023-03-31T02:23:35;5.15;;;2.80;;
75548;SDS011;64133;56.002;37.208;2023-03-31T02:28:39;3.98;;;2.77;;
75548;SDS011;64133;56.002;37.208;2023-03-31T02:33:44;11.60;;;2.60;;
75548;SDS011;64133;56.002;37.208;2023-03-31T02:38:50;7.30;;;2.00;;
75548;SDS011;64133;56.002;37.208;2023-03-31T02:43:54;3.15;;;2.17;;
75548;SDS011;64133;56.002;37.208;2023-03-31T02:48:59;3.35;;;2.05;;
75548;SDS011;64133;56.002;37.208;2023-03-31T02:54:25;6.35;;;2.55;;
75548;SDS011;64133;56.002;37.208;2023-03-31T02:59:50;3.22;;;2.12;;
75548;SDS011;64133;56.002;37.208;2023-03-31T03:05:02;6.15;;;3.20;;
75548;SDS011;64133;56.002;37.208;2023-03-31T03:10:15;5.33;;;2.08;;
75548;SDS011;64133;56.002;37.208;2023-03-31T03:15:20;7.42;;;2.67;;
75548;SDS011;64133;56.002;37.208;2023-03-31T03:20:24;7.87;;;2.30;;
75548;SDS011;64133;56.002;37.208;2023-03-31T03:25:29;5.62;;;2.50;;
75548;SDS011;64133;56.002;37.208;2023-03-31T03:30:34;4.35;;;2.20;;
75548;SDS011;64133;56.002;37.208;2023-03-31T03:35:38;5.22;;;2.42;;
75548;SDS011;64133;56.002;37.208;2023-03-31T03:40:43;5.05;;;2.17;;
75548;SDS011;64133;56.002;37.208;2023-03-31T03:45:48;3.95;;;1.92;;
75548;SDS011;64133;56.002;37.208;2023-03-31T03:50:52;3.92;;;2.08;;
75548;SDS011;64133;56.002;37.208;2023-03-31T03:55:57;2.90;;;1.62;;
75548;SDS011;64133;56.002;37.208;2023-03-31T04:01:02;4.17;;;1.87;;
75548;SDS011;64133;56.002;37.208;2023-03-31T04:06:06;5.45;;;3.05;;
75548;SDS011;64133;56.002;37.208;2023-03-31T04:11:12;3.05;;;2.00;;
75548;SDS011;64133;56.002;37.208;2023-03-31T04:16:16;3.72;;;1.95;;
75548;SDS011;64133;56.002;37.208;2023-03-31T04:21:21;4.58;;;2.92;;
75548;SDS011;64133;56.002;37.208;2023-03-31T04:26:26;2.62;;;2.02;;
75548;SDS011;64133;56.002;37.208;2023-03-31T04:31:33;3.60;;;2.02;;
75548;SDS011;64133;56.002;37.208;2023-03-31T04:36:46;4.12;;;2.40;;
75548;SDS011;64133;56.002;37.208;2023-03-31T04:41:50;3.10;;;1.70;;
75548;SDS011;64133;56.002;37.208;2023-03-31T04:46:55;2.67;;;2.08;;
75548;SDS011;64133;56.002;37.208;2023-03-31T04:52:00;3.02;;;2.42;;
75548;SDS011;64133;56.002;37.208;2023-03-31T04:57:05;5.00;;;2.67;;
75548;SDS011;64133;56.002;37.208;2023-03-31T05:02:10;3.60;;;1.95;;
75548;SDS011;64133;56.002;37.208;2023-03-31T05:07:17;2.58;;;1.98;;
75548;SDS011;64133;56.002;37.208;2023-03-31T05:12:21;2.67;;;2.35;;
75548;SDS011;64133;56.002;37.208;2023-03-31T05:17:26;3.92;;;1.92;;
75548;SDS011;64133;56.002;37.208;2023-03-31T05:22:32;5.78;;;2.67;;
75548;SDS011;64133;56.002;37.208;2023-03-31T05:27:36;5.55;;;3.00;;
75548;SDS011;64133;56.002;37.208;2023-03-31T05:32:41;4.05;;;2.58;;
75548;SDS011;64133;56.002;37.208;2023-03-31T05:37:46;8.00;;;2.58;;
75548;SDS011;64133;56.002;37.208;2023-03-31T05:42:50;4.28;;;1.98;;
75548;SDS011;64133;56.002;37.208;2023-03-31T05:47:55;7.17;;;2.70;;
75548;SDS011;64133;56.002;37.208;2023-03-31T05:53:00;7.08;;;1.87;;
75548;SDS011;64133;56.002;37.208;2023-03-31T05:58:04;2.75;;;1.90;;
75548;SDS011;64133;56.002;37.208;2023-03-31T06:03:09;5.37;;;2.20;;
75548;SDS011;64133;56.002;37.208;2023-03-31T06:08:14;3.52;;;2.08;;
75548;SDS011;64133;56.002;37.208;2023-03-31T06:13:19;2.50;;;2.10;;
75548;SDS011;64133;56.002;37.208;2023-03-31T06:18:24;3.87;;;2.15;;
75548;SDS011;64133;56.002;37.208;2023-03-31T06:23:28;6.03;;;3.00;;
75548;SDS011;64133;56.002;37.208;2023-03-31T06:28:33;2.50;;;1.92;;
75548;SDS011;64133;56.002;37.208;2023-03-31T06:33:38;5.37;;;2.00;;
75548;SDS011;64133;56.002;37.208;2023-03-31T06:38:42;5.45;;;2.12;;
75548;SDS011;64133;56.002;37.208;2023-03-31T06:43:47;2.25;;;1.80;;
75548;SDS011;64133;56.002;37.208;2023-03-31T06:48:52;3.02;;;1.85;;
75548;SDS011;64133;56.002;37.208;2023-03-31T06:53:56;4.90;;;1.90;;
75548;SDS011;64133;56.002;37.208;2023-03-31T06:59:01;2.98;;;1.52;;
75548;SDS011;64133;56.002;37.208;2023-03-31T07:04:05;13.75;;;3.25;;
75548;SDS011;64133;56.002;37.208;2023-03-31T07:09:10;4.22;;;1.80;;
75548;SDS011;64133;56.002;37.208;2023-03-31T07:14:15;6.85;;;1.60;;
75548;SDS011;64133;56.002;37.208;2023-03-31T07:19:19;2.25;;;1.47;;
75548;SDS011;64133;56.002;37.208;2023-03-31T07:24:24;3.15;;;2.00;;
75548;SDS011;64133;56.002;37.208;2023-03-31T07:29:31;5.42;;;2.00;;
75548;SDS011;64133;56.002;37.208;2023-03-31T07:34:35;3.35;;;1.80;;
75548;SDS011;64133;56.002;37.208;2023-03-31T07:39:40;9.98;;;2.42;;
75548;SDS011;64133;56.002;37.208;2023-03-31T07:44:45;10.80;;;2.22;;
75548;SDS011;64133;56.002;37.208;2023-03-31T07:49:49;6.83;;;1.90;;
75548;SDS011;64133;56.002;37.208;2023-03-31T07:54:54;9.10;;;2.70;;
75548;SDS011;64133;56.002;37.208;2023-03-31T07:59:59;3.58;;;2.05;;
75548;SDS011;64133;56.002;37.208;2023-03-31T08:05:06;9.88;;;2.25;;
75548;SDS011;64133;56.002;37.208;2023-03-31T08:10:13;2.98;;;2.10;;
75548;SDS011;64133;56.002;37.208;2023-03-31T08:15:16;3.72;;;1.62;;
75548;SDS011;64133;56.002;37.208;2023-03-31T08:20:21;7.85;;;2.30;;
75548;SDS011;64133;56.002;37.208;2023-03-31T08:25:25;3.22;;;1.85;;
75548;SDS011;64133;56.002;37.208;2023-03-31T08:30:30;22.90;;;3.00;;
75548;SDS011;64133;56.002;37.208;2023-03-31T08:35:36;3.70;;;1.82;;
75548;SDS011;64133;56.002;37.208;2023-03-31T08:40:40;7.87;;;2.25;;
75548;SDS011;64133;56.002;37.208;2023-03-31T08:45:45;8.25;;;2.85;;
75548;SDS011;64133;56.002;37.208;2023-03-31T08:50:59;11.03;;;2.60;;
75548;SDS011;64133;56.002;37.208;2023-03-31T08:56:04;8.65;;;2.45;;
75548;SDS011;64133;56.002;37.208;2023-03-31T09:01:10;3.60;;;2.17;;
75548;SDS011;64133;56.002;37.208;2023-03-31T09:06:16;3.67;;;2.25;;
75548;SDS011;64133;56.002;37.208;2023-03-31T09:11:23;3.52;;;2.10;;
75548;SDS011;64133;56.002;37.208;2023-03-31T09:16:27;3.52;;;2.22;;
75548;SDS011;64133;56.002;37.208;2023-03-31T09:21:31;11.30;;;2.83;;
75548;SDS011;64133;56.002;37.208;2023-03-31T09:26:37;11.53;;;2.27;;
75548;SDS011;64133;56.002;37.208;2023-03-31T09:31:41;4.17;;;2.05;;
75548;SDS011;64133;56.002;37.208;2023-03-31T09:36:46;10.53;;;2.27;;
75548;SDS011;64133;56.002;37.208;2023-03-31T09:41:51;10.80;;;2.10;;
75548;SDS011;64133;56.002;37.208;2023-03-31T09:46:56;5.42;;;2.30;;
75548;SDS011;64133;56.002;37.208;2023-03-31T09:52:02;6.80;;;2.90;;
75548;SDS011;64133;56.002;37.208;2023-03-31T09:57:13;4.20;;;1.90;;
75548;SDS011;64133;56.002;37.208;2023-03-31T10:02:22;4.53;;;1.50;;
75548;SDS011;64133;56.002;37.208;2023-03-31T10:07:31;8.68;;;2.27;;
75548;SDS011;64133;56.002;37.208;2023-03-31T10:12:36;3.40;;;2.45;;
75548;SDS011;64133;56.002;37.208;2023-03-31T10:17:41;10.98;;;2.20;;
75548;SDS011;64133;56.002;37.208;2023-03-31T10:22:46;5.58;;;2.30;;
75548;SDS011;64133;56.002;37.208;2023-03-31T10:27:52;6.22;;;1.95;;
75548;SDS011;64133;56.002;37.208;2023-03-31T10:32:56;6.30;;;1.95;;
75548;SDS011;64133;56.002;37.208;2023-03-31T10:38:02;9.68;;;2.10;;
75548;SDS011;64133;56.002;37.208;2023-03-31T10:43:10;5.37;;;2.08;;
75548;SDS011;64133;56.002;37.208;2023-03-31T10:48:23;3.70;;;2.00;;
75548;SDS011;64133;56.002;37.208;2023-03-31T10:53:26;8.95;;;1.92;;
75548;SDS011;64133;56.002;37.208;2023-03-31T10:58:35;3.65;;;2.10;;
75548;SDS011;64133;56.002;37.208;2023-03-31T11:03:54;4.85;;;1.85;;
75548;SDS011;64133;56.002;37.208;2023-03-31T11:09:05;5.80;;;2.30;;
75548;SDS011;64133;56.002;37.208;2023-03-31T11:14:13;4.12;;;2.08;;
75548;SDS011;64133;56.002;37.208;2023-03-31T11:19:21;7.03;;;2.33;;
75548;SDS011;64133;56.002;37.208;2023-03-31T11:24:32;4.70;;;2.08;;
75548;SDS011;64133;56.002;37.208;2023-03-31T11:29:39;4.75;;;1.85;;
75548;SDS011;64133;56.002;37.208;2023-03-31T11:40:33;3.95;;;2.00;;
75548;SDS011;64133;56.002;37.208;2023-03-31T11:45:44;9.60;;;2.40;;
75548;SDS011;64133;56.002;37.208;2023-03-31T11:50:49;6.45;;;2.22;;
75548;SDS011;64133;56.002;37.208;2023-03-31T11:55:53;25.48;;;3.02;;
75548;SDS011;64133;56.002;37.208;2023-03-31T12:00:59;5.37;;;1.80;;
75548;SDS011;64133;56.002;37.208;2023-03-31T12:06:05;5.45;;;2.70;;
75548;SDS011;64133;56.002;37.208;2023-03-31T12:11:09;8.45;;;2.58;;
75548;SDS011;64133;56.002;37.208;2023-03-31T12:16:14;4.87;;;2.27;;
75548;SDS011;64133;56.002;37.208;2023-03-31T12:21:18;6.10;;;2.72;;
75548;SDS011;64133;56.002;37.208;2023-03-31T12:26:26;4.67;;;1.90;;
75548;SDS011;64133;56.002;37.208;2023-03-31T12:31:38;4.45;;;2.22;;
75548;SDS011;64133;56.002;37.208;2023-03-31T12:36:46;6.40;;;2.17;;
75548;SDS011;64133;56.002;37.208;2023-03-31T12:41:58;8.43;;;2.33;;
75548;SDS011;64133;56.002;37.208;2023-03-31T12:47:14;11.68;;;2.75;;
75548;SDS011;64133;56.002;37.208;2023-03-31T12:52:24;6.92;;;2.25;;
75548;SDS011;64133;56.002;37.208;2023-03-31T12:57:28;8.98;;;2.45;;
75548;SDS011;64133;56.002;37.208;2023-03-31T13:02:33;7.62;;;2.62;;
75548;SDS011;64133;56.002;37.208;2023-03-31T13:07:39;5.20;;;2.25;;
75548;SDS011;64133;56.002;37.208;2023-03-31T13:12:46;5.60;;;2.50;;
75548;SDS011;64133;56.002;37.208;2023-03-31T13:17:58;12.70;;;3.33;;
75548;SDS011;64133;56.002;37.208;2023-03-31T13:23:04;4.65;;;2.70;;
75548;SDS011;64133;56.002;37.208;2023-03-31T13:28:24;7.25;;;2.90;;
75548;SDS011;64133;56.002;37.208;2023-03-31T13:33:34;9.13;;;3.20;;
75548;SDS011;64133;56.002;37.208;2023-03-31T13:38:49;9.45;;;3.67;;
75548;SDS011;64133;56.002;37.208;2023-03-31T13:50:01;7.03;;;3.40;;
75548;SDS011;64133;56.002;37.208;2023-03-31T13:55:30;8.55;;;3.15;;
75548;SDS011;64133;56.002;37.208;2023-03-31T14:00:42;5.90;;;3.40;;
75548;SDS011;64133;56.002;37.208;2023-03-31T14:05:50;9.35;;;3.80;;
75548;SDS011;64133;56.002;37.208;2023-03-31T14:10:55;7.17;;;3.05;;
75548;SDS011;64133;56.002;37.208;2023-03-31T14:16:06;10.80;;;3.60;;
75548;SDS011;64133;56.002;37.208;2023-03-31T14:21:13;9.50;;;3.70;;
75548;SDS011;64133;56.002;37.208;2023-03-31T14:26:24;6.42;;;2.40;;
75548;SDS011;64133;56.002;37.208;2023-03-31T14:31:29;8.15;;;2.85;;
75548;SDS011;64133;56.002;37.208;2023-03-31T14:36:37;7.28;;;2.55;;
75548;SDS011;64133;56.002;37.208;2023-03-31T14:41:42;10.15;;;4.00;;
75548;SDS011;64133;56.002;37.208;2023-03-31T14:46:47;5.40;;;2.42;;
75548;SDS011;64133;56.002;37.208;2023-03-31T14:51:52;12.18;;;3.92;;
75548;SDS011;64133;56.002;37.208;2023-03-31T14:56:57;9.25;;;4.05;;
75548;SDS011;64133;56.002;37.208;2023-03-31T15:02:02;9.45;;;3.75;;
75548;SDS011;64133;56.002;37.208;2023-03-31T15:07:07;8.80;;;3.37;;
75548;SDS011;64133;56.002;37.208;2023-03-31T15:12:12;6.80;;;2.65;;
75548;SDS011;64133;56.002;37.208;2023-03-31T15:17:22;7.05;;;3.45;;
75548;SDS011;64133;56.002;37.208;2023-03-31T15:22:26;5.47;;;3.10;;
75548;SDS011;64133;56.002;37.208;2023-03-31T15:27:33;8.10;;;3.22;;
75548;SDS011;64133;56.002;37.208;2023-03-31T15:32:37;8.88;;;3.60;;
75548;SDS011;64133;56.002;37.208;2023-03-31T15:37:42;8.83;;;3.90;;
75548;SDS011;64133;56.002;37.208;2023-03-31T15:42:47;8.98;;;3.33;;
75548;SDS011;64133;56.002;37.208;2023-03-31T15:47:52;11.03;;;4.92;;
75548;SDS011;64133;56.002;37.208;2023-03-31T15:52:56;7.90;;;3.65;;
75548;SDS011;64133;56.002;37.208;2023-03-31T15:58:01;8.98;;;4.10;;
75548;SDS011;64133;56.002;37.208;2023-03-31T16:03:10;13.48;;;4.45;;
75548;SDS011;64133;56.002;37.208;2023-03-31T16:08:15;9.90;;;3.85;;
75548;SDS011;64133;56.002;37.208;2023-03-31T16:13:19;7.58;;;3.60;;
75548;SDS011;64133;56.002;37.208;2023-03-31T16:18:26;9.55;;;4.85;;
75548;SDS011;64133;56.002;37.208;2023-03-31T16:23:31;9.60;;;4.12;;
75548;SDS011;64133;56.002;37.208;2023-03-31T16:28:37;10.00;;;4.40;;
75548;SDS011;64133;56.002;37.208;2023-03-31T16:33:52;9.70;;;4.35;;
75548;SDS011;64133;56.002;37.208;2023-03-31T16:38:56;8.43;;;3.50;;
75548;SDS011;64133;56.002;37.208;2023-03-31T16:44:01;10.00;;;3.77;;
75548;SDS011;64133;56.002;37.208;2023-03-31T16:49:05;7.90;;;3.30;;
75548;SDS011;64133;56.002;37.208;2023-03-31T16:54:10;8.05;;;3.20;;
75548;SDS011;64133;56.002;37.208;2023-03-31T16:59:15;6.58;;;3.20;;
75548;SDS011;64133;56.002;37.208;2023-03-31T17:04:20;9.40;;;3.55;;
75548;SDS011;64133;56.002;37.208;2023-03-31T17:09:25;5.97;;;3.20;;
75548;SDS011;64133;56.002;37.208;2023-03-31T17:14:29;7.97;;;3.50;;
75548;SDS011;64133;56.002;37.208;2023-03-31T17:19:34;19.32;;;9.00;;
75548;SDS011;64133;56.002;37.208;2023-03-31T17:24:39;9.70;;;4.20;;
75548;SDS011;64133;56.002;37.208;2023-03-31T17:29:43;11.80;;;5.03;;
75548;SDS011;64133;56.002;37.208;2023-03-31T17:34:48;7.80;;;3.67;;
75548;SDS011;64133;56.002;37.208;2023-03-31T17:39:53;7.95;;;3.67;;
75548;SDS011;64133;56.002;37.208;2023-03-31T17:44:57;8.43;;;4.25;;
75548;SDS011;64133;56.002;37.208;2023-03-31T17:50:02;11.63;;;5.60;;
75548;SDS011;64133;56.002;37.208;2023-03-31T17:55:08;20.65;;;8.65;;
75548;SDS011;64133;56.002;37.208;2023-03-31T18:00:14;13.80;;;5.62;;
75548;SDS011;64133;56.002;37.208;2023-03-31T18:05:18;10.15;;;5.42;;
75548;SDS011;64133;56.002;37.208;2023-03-31T18:10:23;8.53;;;4.70;;
75548;SDS011;64133;56.002;37.208;2023-03-31T18:15:28;8.83;;;4.22;;
75548;SDS011;64133;56.002;37.208;2023-03-31T18:20:33;10.08;;;5.35;;
75548;SDS011;64133;56.002;37.208;2023-03-31T18:25:38;11.53;;;5.25;;
75548;SDS011;64133;56.002;37.208;2023-03-31T18:35:57;9.80;;;5.78;;
75548;SDS011;64133;56.002;37.208;2023-03-31T18:41:04;11.80;;;5.97;;
75548;SDS011;64133;56.002;37.208;2023-03-31T18:46:09;8.00;;;4.20;;
75548;SDS011;64133;56.002;37.208;2023-03-31T18:51:14;10.55;;;5.15;;
75548;SDS011;64133;56.002;37.208;2023-03-31T18:56:18;9.05;;;5.60;;
75548;SDS011;64133;56.002;37.208;2023-03-31T19:01:23;10.58;;;4.97;;
75548;SDS011;64133;56.002;37.208;2023-03-31T19:06:30;9.90;;;5.45;;
75548;SDS011;64133;56.002;37.208;2023-03-31T19:11:35;11.18;;;5.62;;
75548;SDS011;64133;56.002;37.208;2023-03-31T19:16:40;10.55;;;6.45;;
75548;SDS011;64133;56.002;37.208;2023-03-31T19:21:44;9.80;;;4.97;;
75548;SDS011;64133;56.002;37.208;2023-03-31T19:26:49;8.63;;;5.20;;
75548;SDS011;64133;56.002;37.208;2023-03-31T19:31:54;9.53;;;5.70;;
75548;SDS011;64133;56.002;37.208;2023-03-31T19:36:58;14.73;;;5.47;;
75548;SDS011;64133;56.002;37.208;2023-03-31T19:42:04;9.80;;;5.28;;
75548;SDS011;64133;56.002;37.208;2023-03-31T19:47:08;10.03;;;4.95;;
75548;SDS011;64133;56.002;37.208;2023-03-31T19:52:13;12.75;;;6.08;;
75548;SDS011;64133;56.002;37.208;2023-03-31T19:57:18;18.30;;;9.95;;
75548;SDS011;64133;56.002;37.208;2023-03-31T20:02:22;12.15;;;6.75;;
75548;SDS011;64133;56.002;37.208;2023-03-31T20:07:27;10.68;;;6.22;;
75548;SDS011;64133;56.002;37.208;2023-03-31T20:12:32;11.45;;;5.90;;
75548;SDS011;64133;56.002;37.208;2023-03-31T20:17:36;12.93;;;6.85;;
75548;SDS011;64133;56.002;37.208;2023-03-31T20:22:41;13.32;;;7.12;;
75548;SDS011;64133;56.002;37.208;2023-03-31T20:32:59;11.83;;;6.15;;
75548;SDS011;64133;56.002;37.208;2023-03-31T20:38:04;12.88;;;6.62;;
75548;SDS011;64133;56.002;37.208;2023-03-31T20:43:09;11.25;;;5.80;;
75548;SDS011;64133;56.002;37.208;2023-03-31T20:48:14;11.55;;;6.37;;
75548;SDS011;64133;56.002;37.208;2023-03-31T20:53:18;15.58;;;6.78;;
75548;SDS011;64133;56.002;37.208;2023-03-31T20:58:23;13.28;;;6.80;;
75548;SDS011;64133;56.002;37.208;2023-03-31T21:03:27;10.68;;;6.37;;
75548;SDS011;64133;56.002;37.208;2023-03-31T21:08:32;12.45;;;5.78;;
75548;SDS011;64133;56.002;37.208;2023-03-31T21:13:37;10.23;;;5.65;;
75548;SDS011;64133;56.002;37.208;2023-03-31T21:18:41;11.65;;;6.40;;
75548;SDS011;64133;56.002;37.208;2023-03-31T21:23:46;11.73;;;6.45;;
75548;SDS011;64133;56.002;37.208;2023-03-31T21:28:51;11.83;;;6.37;;
75548;SDS011;64133;56.002;37.208;2023-03-31T21:33:55;9.68;;;6.17;;
75548;SDS011;64133;56.002;37.208;2023-03-31T21:39:00;12.65;;;5.92;;
75548;SDS011;64133;56.002;37.208;2023-03-31T21:44:05;10.68;;;5.87;;
75548;SDS011;64133;56.002;37.208;2023-03-31T21:49:10;9.65;;;6.40;;
75548;SDS011;64133;56.002;37.208;2023-03-31T21:54:15;9.20;;;5.65;;
75548;SDS011;64133;56.002;37.208;2023-03-31T21:59:19;10.55;;;6.75;;
75548;SDS011;64133;56.002;37.208;2023-03-31T22:04:24;11.63;;;5.85;;
75548;SDS011;64133;56.002;37.208;2023-03-31T22:09:29;10.90;;;6.03;;
75548;SDS011;64133;56.002;37.208;2023-03-31T22:14:36;9.93;;;5.80;;
75548;SDS011;64133;56.002;37.208;2023-03-31T22:19:40;9.05;;;5.33;;
75548;SDS011;64133;56.002;37.208;2023-03-31T22:24:45;10.90;;;4.95;;
75548;SDS011;64133;56.002;37.208;2023-03-31T22:29:49;10.48;;;6.60;;
75548;SDS011;64133;56.002;37.208;2023-03-31T22:34:54;8.68;;;5.72;;
75548;SDS011;64133;56.002;37.208;2023-03-31T22:39:59;7.72;;;4.65;;
75548;SDS011;64133;56.002;37.208;2023-03-31T22:45:04;15.65;;;7.67;;
75548;SDS011;64133;56.002;37.208;2023-03-31T22:50:10;7.95;;;4.40;;
75548;SDS011;64133;56.002;37.208;2023-03-31T22:55:14;5.00;;;3.75;;
75548;SDS011;64133;56.002;37.208;2023-03-31T23:00:19;9.00;;;5.10;;
75548;SDS011;64133;56.002;37.208;2023-03-31T23:05:24;8.10;;;4.42;;
75548;SDS011;64133;56.002;37.208;2023-03-31T23:10:29;9.08;;;5.67;;
75548;SDS011;64133;56.002;37.208;2023-03-31T23:20:50;12.30;;;6.05;;
75548;SDS011;64133;56.002;37.208;2023-03-31T23:25:54;11.50;;;6.47;;
75548;SDS011;64133;56.002;37.208;2023-03-31T23:30:59;14.98;;;6.42;;
75548;SDS011;64133;56.002;37.208;2023-03-31T23:36:04;13.90;;;7.15;;
75548;SDS011;64133;56.002;37.208;2023-03-31T23:41:09;13.05;;;6.37;;
75548;SDS011;64133;56.002;37.208;2023-03-31T23:46:14;13.98;;;8.13;;
75548;SDS011;64133;56.002;37.208;2023-03-31T23:51:18;12.33;;;6.22;;
75548;SDS011;64133;56.002;37.208;2023-03-31T23:56:23;12.82;;;7.33;;
